createdAt,value
2018-04-26T00:00:28.445Z,7.57
2018-04-26T00:02:57.448Z,10.30
2018-04-26T00:05:26.467Z,7.67
2018-04-26T00:07:54.708Z,8.60
2018-04-26T00:10:22.945Z,10.07
2018-04-26T00:12:51.227Z,5.73
2018-04-26T00:15:20.224Z,7.77
2018-04-26T00:17:48.469Z,6.70
2018-04-26T00:20:17.482Z,6.37
2018-04-26T00:22:45.709Z,8.97
2018-04-26T00:25:13.968Z,7.93
2018-04-26T00:27:42.212Z,6.73
2018-04-26T00:30:11.213Z,8.40
2018-04-26T00:32:40.235Z,9.87
2018-04-26T00:35:08.503Z,8.27
2018-04-26T00:37:37.635Z,7.43
2018-04-26T00:40:06.306Z,7.50
2018-04-26T00:42:34.849Z,7.00
2018-04-26T00:45:03.102Z,6.67
2018-04-26T00:47:31.356Z,8.37
2018-04-26T00:49:59.595Z,11.57
2018-04-26T00:52:28.614Z,7.00
2018-04-26T00:54:57.632Z,10.23
2018-04-26T00:57:25.885Z,7.70
2018-04-26T00:59:54.906Z,7.43
2018-04-26T01:02:23.161Z,11.83
2018-04-26T01:04:52.164Z,7.27
2018-04-26T01:07:21.164Z,5.93
2018-04-26T01:09:51.550Z,6.70
2018-04-26T01:12:19.771Z,7.37
2018-04-26T01:14:48.789Z,9.13
2018-04-26T01:17:17.020Z,7.53
2018-04-26T01:19:46.059Z,6.03
2018-04-26T01:22:15.068Z,7.83
2018-04-26T01:24:43.324Z,12.50
2018-04-26T01:27:12.385Z,8.07
2018-04-26T01:29:41.193Z,8.40
2018-04-26T01:32:09.440Z,9.43
2018-04-26T01:34:37.748Z,7.63
2018-04-26T01:37:17.809Z,8.33
2018-04-26T01:39:46.053Z,10.40
2018-04-26T01:42:14.298Z,9.03
2018-04-26T01:44:43.928Z,7.97
2018-04-26T01:47:12.198Z,10.80
2018-04-26T01:49:41.317Z,8.10
2018-04-26T01:52:09.563Z,10.33
2018-04-26T01:54:39.130Z,5.57
2018-04-26T01:57:07.365Z,7.87
2018-04-26T01:59:36.360Z,7.20
2018-04-26T02:02:05.381Z,8.03
2018-04-26T02:04:33.613Z,9.80
2018-04-26T02:07:01.873Z,9.33
2018-04-26T02:09:30.099Z,12.10
2018-04-26T02:11:59.125Z,8.40
2018-04-26T02:14:27.388Z,8.23
2018-04-26T02:16:56.456Z,8.10
2018-04-26T02:19:24.701Z,12.93
2018-04-26T02:21:53.104Z,7.83
2018-04-26T02:24:21.354Z,12.33
2018-04-26T02:26:49.624Z,6.73
2018-04-26T02:29:18.619Z,8.73
2018-04-26T02:31:46.888Z,11.00
2018-04-26T02:34:15.907Z,7.40
2018-04-26T02:36:44.168Z,9.07
2018-04-26T02:39:13.184Z,8.97
2018-04-26T02:41:41.427Z,8.50
2018-04-26T02:44:09.697Z,9.20
2018-04-26T02:46:37.943Z,9.33
2018-04-26T02:49:06.200Z,11.53
2018-04-26T02:51:35.125Z,10.13
2018-04-26T02:54:03.361Z,9.90
2018-04-26T02:56:32.411Z,9.73
2018-04-26T02:59:01.626Z,8.80
2018-04-26T03:01:29.874Z,7.30
2018-04-26T03:03:58.100Z,10.97
2018-04-26T03:06:26.402Z,11.97
2018-04-26T03:08:54.633Z,10.53
2018-04-26T03:11:22.878Z,7.67
2018-04-26T03:13:51.918Z,9.27
2018-04-26T03:16:20.177Z,10.67
2018-04-26T03:18:48.440Z,10.87
2018-04-26T03:21:18.159Z,9.50
2018-04-26T03:23:47.169Z,8.37
2018-04-26T03:26:16.590Z,12.37
2018-04-26T03:28:44.851Z,9.17
2018-04-26T03:31:13.961Z,11.67
2018-04-26T03:33:42.121Z,6.93
2018-04-26T03:36:11.178Z,10.57
2018-04-26T03:38:39.380Z,12.30
2018-04-26T03:41:07.613Z,13.17
2018-04-26T03:43:35.872Z,12.77
2018-04-26T03:46:04.125Z,10.43
2018-04-26T03:48:32.380Z,12.17
2018-04-26T03:51:01.204Z,8.03
2018-04-26T03:53:30.235Z,9.00
2018-04-26T03:55:58.491Z,13.50
2018-04-26T03:58:27.509Z,8.97
2018-04-26T04:01:07.585Z,11.80
2018-04-26T04:03:47.806Z,12.43
2018-04-26T04:06:16.829Z,14.07
2018-04-26T04:08:45.100Z,13.03
2018-04-26T04:11:14.603Z,15.80
2018-04-26T04:13:42.862Z,8.00
2018-04-26T04:16:11.109Z,11.47
2018-04-26T04:18:39.384Z,8.80
2018-04-26T04:21:07.614Z,15.03
2018-04-26T04:23:36.650Z,9.37
2018-04-26T04:26:04.923Z,13.83
2018-04-26T04:28:34.068Z,11.67
2018-04-26T04:31:02.305Z,9.43
2018-04-26T04:33:30.584Z,11.17
2018-04-26T04:35:58.862Z,16.10
2018-04-26T04:38:27.938Z,13.37
2018-04-26T04:40:56.998Z,13.73
2018-04-26T04:43:25.243Z,12.23
2018-04-26T04:45:53.651Z,15.47
2018-04-26T04:48:22.040Z,14.33
2018-04-26T04:50:50.291Z,13.60
2018-04-26T04:53:18.561Z,10.87
2018-04-26T04:55:47.256Z,10.17
2018-04-26T04:58:15.503Z,7.90
2018-04-26T05:00:45.402Z,12.23
2018-04-26T05:03:13.644Z,10.10
2018-04-26T05:05:41.919Z,14.40
2018-04-26T05:08:10.181Z,14.90
2018-04-26T05:10:38.408Z,11.43
2018-04-26T05:13:06.684Z,12.93
2018-04-26T05:15:34.924Z,10.57
2018-04-26T05:18:04.431Z,11.23
2018-04-26T05:20:33.917Z,12.53
2018-04-26T05:23:02.157Z,10.93
2018-04-26T05:25:30.508Z,12.97
2018-04-26T05:27:59.533Z,10.13
2018-04-26T05:30:27.809Z,15.43
2018-04-26T05:32:56.049Z,10.07
2018-04-26T05:35:24.336Z,12.70
2018-04-26T05:37:53.631Z,10.37
2018-04-26T05:40:21.977Z,8.40
2018-04-26T05:42:50.238Z,7.37
2018-04-26T05:45:18.505Z,7.40
2018-04-26T05:47:47.655Z,4.00
2018-04-26T05:50:15.921Z,4.70
2018-04-26T05:52:44.150Z,4.67
2018-04-26T05:55:13.210Z,5.83
2018-04-26T05:57:41.438Z,3.50
2018-04-26T06:00:10.497Z,4.77
2018-04-26T06:02:38.725Z,2.93
2018-04-26T06:05:08.276Z,6.10
2018-04-26T06:07:36.504Z,3.63
2018-04-26T06:10:05.524Z,5.40
2018-04-26T06:12:33.781Z,4.70
2018-04-26T06:15:02.809Z,4.97
2018-04-26T06:17:31.047Z,5.80
2018-04-26T06:19:59.292Z,6.30
2018-04-26T06:22:27.534Z,5.87
2018-04-26T06:24:56.576Z,4.90
2018-04-26T06:27:25.741Z,3.77
2018-04-26T06:29:54.759Z,3.83
2018-04-26T06:32:22.992Z,3.67
2018-04-26T06:34:51.981Z,4.87
2018-04-26T06:37:20.231Z,3.93
2018-04-26T06:39:48.529Z,3.97
2018-04-26T06:42:16.845Z,5.07
2018-04-26T06:44:45.036Z,4.27
2018-04-26T06:47:14.043Z,2.73
2018-04-26T06:49:43.067Z,4.47
2018-04-26T06:52:11.447Z,6.20
2018-04-26T06:54:39.709Z,4.20
2018-04-26T06:57:08.730Z,5.63
2018-04-26T06:59:36.966Z,4.43
2018-04-26T07:02:05.982Z,4.50
2018-04-26T07:04:34.231Z,4.27
2018-04-26T07:07:02.476Z,5.60
2018-04-26T07:09:30.705Z,3.83
2018-04-26T07:11:59.735Z,4.83
2018-04-26T07:14:27.967Z,5.10
2018-04-26T07:16:56.242Z,6.17
2018-04-26T07:19:24.476Z,6.17
2018-04-26T07:21:52.785Z,6.53
2018-04-26T07:24:21.413Z,7.80
2018-04-26T07:26:49.680Z,7.30
2018-04-26T07:29:17.972Z,7.93
2018-04-26T07:31:47.015Z,7.77
2018-04-26T07:34:15.259Z,7.10
2018-04-26T07:36:44.296Z,8.20
2018-04-26T07:39:12.557Z,9.17
2018-04-26T07:41:41.576Z,9.47
2018-04-26T07:44:09.821Z,6.33
2018-04-26T07:46:38.852Z,9.00
2018-04-26T07:49:07.574Z,6.67
2018-04-26T07:51:35.848Z,7.40
2018-04-26T07:54:04.074Z,9.17
2018-04-26T07:56:33.088Z,10.93
2018-04-26T07:59:02.081Z,8.77
2018-04-26T08:01:31.142Z,9.70
2018-04-26T08:03:59.319Z,11.37
2018-04-26T08:06:27.582Z,11.23
2018-04-26T08:08:55.837Z,11.03
2018-04-26T08:11:24.080Z,11.63
2018-04-26T08:13:52.331Z,11.57
2018-04-26T08:16:20.601Z,12.10
2018-04-26T08:18:48.848Z,11.43
2018-04-26T08:21:18.780Z,11.03
2018-04-26T08:23:47.028Z,9.07
2018-04-26T08:26:15.289Z,10.10
2018-04-26T08:28:43.576Z,13.10
2018-04-26T08:31:12.738Z,12.97
2018-04-26T08:33:40.972Z,11.83
2018-04-26T08:36:10.017Z,10.70
2018-04-26T08:38:38.247Z,12.33
2018-04-26T08:41:06.953Z,13.43
2018-04-26T08:43:35.949Z,11.83
2018-04-26T08:46:04.991Z,10.23
2018-04-26T08:48:33.229Z,13.57
2018-04-26T08:51:02.854Z,11.53
2018-04-26T08:53:31.197Z,11.43
2018-04-26T08:55:59.441Z,13.90
2018-04-26T08:58:27.711Z,13.73
2018-04-26T09:00:55.997Z,13.60
2018-04-26T09:03:24.316Z,14.90
2018-04-26T09:05:52.556Z,11.47
2018-04-26T09:08:20.822Z,13.77
2018-04-26T09:10:49.812Z,11.57
2018-04-26T09:13:18.832Z,8.90
2018-04-26T09:15:47.230Z,8.93
2018-04-26T09:18:15.417Z,10.97
2018-04-26T09:20:44.363Z,12.17
2018-04-26T09:23:13.416Z,7.47
2018-04-26T09:25:41.665Z,11.57
2018-04-26T09:28:09.927Z,9.53
2018-04-26T09:30:38.155Z,12.27
2018-04-26T09:33:06.408Z,12.00
2018-04-26T09:35:34.676Z,8.60
2018-04-26T09:38:02.956Z,13.40
2018-04-26T09:40:32.411Z,12.77
2018-04-26T09:43:00.672Z,12.27
2018-04-26T09:45:28.917Z,10.47
2018-04-26T09:47:57.967Z,13.43
2018-04-26T09:50:26.230Z,12.37
2018-04-26T09:52:55.354Z,15.00
2018-04-26T09:55:23.684Z,10.33
2018-04-26T09:57:52.632Z,14.53
2018-04-26T10:00:26.470Z,12.90
2018-04-26T10:02:54.765Z,13.97
2018-04-26T10:05:28.777Z,8.57
2018-04-26T10:07:57.046Z,10.93
2018-04-26T10:10:25.285Z,8.60
2018-04-26T10:12:53.544Z,8.53
2018-04-26T10:15:21.799Z,11.23
2018-04-26T10:17:50.216Z,10.13
2018-04-26T10:20:19.398Z,10.20
2018-04-26T10:22:49.330Z,10.97
2018-04-26T10:25:18.331Z,12.53
2018-04-26T10:27:47.179Z,11.07
2018-04-26T10:30:15.410Z,11.63
2018-04-26T10:32:43.665Z,9.00
2018-04-26T10:35:12.688Z,7.00
2018-04-26T10:37:40.964Z,8.60
2018-04-26T10:40:09.964Z,7.20
2018-04-26T10:42:38.212Z,10.73
2018-04-26T10:45:06.488Z,12.27
2018-04-26T10:47:34.728Z,6.80
2018-04-26T10:50:02.983Z,10.17
2018-04-26T10:52:31.995Z,9.37
2018-04-26T10:55:00.236Z,6.13
2018-04-26T10:57:28.504Z,11.57
2018-04-26T10:59:56.856Z,8.27
2018-04-26T11:02:25.112Z,8.03
2018-04-26T11:04:54.115Z,8.07
2018-04-26T11:07:22.353Z,9.43
2018-04-26T11:09:50.611Z,9.17
2018-04-26T11:12:19.439Z,8.37
2018-04-26T11:14:47.693Z,12.77
2018-04-26T11:17:16.379Z,8.53
2018-04-26T11:19:44.605Z,10.73
2018-04-26T11:22:13.642Z,6.83
2018-04-26T11:24:41.875Z,7.60
2018-04-26T11:27:10.158Z,7.20
2018-04-26T11:29:38.406Z,11.17
2018-04-26T11:32:06.641Z,5.77
2018-04-26T11:34:35.777Z,9.67
2018-04-26T11:37:04.048Z,7.60
2018-04-26T11:39:32.301Z,8.47
2018-04-26T11:42:01.303Z,5.77
2018-04-26T11:44:30.325Z,10.33
2018-04-26T11:46:58.565Z,9.70
2018-04-26T11:49:27.601Z,9.60
2018-04-26T11:51:55.829Z,8.73
2018-04-26T11:54:24.104Z,7.13
2018-04-26T11:56:52.335Z,7.27
2018-04-26T11:59:20.585Z,8.20
2018-04-26T12:01:48.824Z,7.73
2018-04-26T12:04:17.096Z,7.03
2018-04-26T12:06:45.350Z,6.80
2018-04-26T12:09:14.368Z,12.43
2018-04-26T12:11:42.598Z,8.50
2018-04-26T12:14:10.963Z,8.43
2018-04-26T12:16:39.939Z,7.53
2018-04-26T12:19:08.815Z,11.20
2018-04-26T12:21:37.046Z,5.73
2018-04-26T12:24:05.387Z,6.47
2018-04-26T12:26:33.532Z,7.37
2018-04-26T12:29:02.520Z,8.77
2018-04-26T12:31:31.548Z,10.63
2018-04-26T12:33:59.799Z,9.77
2018-04-26T12:36:28.816Z,6.90
2018-04-26T12:38:57.284Z,9.73
2018-04-26T12:41:25.516Z,7.43
2018-04-26T12:43:54.541Z,5.67
2018-04-26T12:46:22.788Z,7.77
2018-04-26T12:48:51.057Z,8.50
2018-04-26T12:51:19.401Z,9.50
2018-04-26T12:53:48.444Z,8.73
2018-04-26T12:56:16.696Z,8.80
2018-04-26T12:58:44.935Z,8.40
2018-04-26T13:01:13.181Z,7.23
2018-04-26T13:03:41.447Z,8.30
2018-04-26T13:06:09.741Z,9.03
2018-04-26T13:08:38.066Z,7.80
2018-04-26T13:11:06.308Z,9.77
2018-04-26T13:13:34.548Z,7.27
2018-04-26T13:16:02.801Z,8.10
2018-04-26T13:18:31.034Z,7.50
2018-04-26T13:21:00.051Z,9.23
2018-04-26T13:23:28.290Z,10.77
2018-04-26T13:25:56.544Z,7.93
2018-04-26T13:28:24.839Z,8.67
2018-04-26T13:30:53.065Z,6.60
2018-04-26T13:33:22.104Z,6.17
2018-04-26T13:35:50.335Z,7.87
2018-04-26T13:38:19.965Z,10.50
2018-04-26T13:40:48.241Z,9.43
2018-04-26T13:43:16.488Z,10.67
2018-04-26T13:45:44.755Z,6.93
2018-04-26T13:48:13.000Z,5.90
2018-04-26T13:50:41.248Z,6.10
2018-04-26T13:53:10.322Z,4.33
2018-04-26T13:55:38.575Z,4.00
2018-04-26T13:58:06.813Z,3.63
2018-04-26T14:00:35.866Z,2.77
2018-04-26T14:03:04.661Z,4.60
2018-04-26T14:05:32.991Z,3.10
2018-04-26T14:08:01.167Z,2.90
2018-04-26T14:10:30.176Z,4.47
2018-04-26T14:12:58.401Z,5.47
2018-04-26T14:15:26.692Z,3.73
2018-04-26T14:17:54.972Z,6.53
2018-04-26T14:20:23.225Z,4.97
2018-04-26T14:22:51.489Z,4.50
2018-04-26T14:25:20.620Z,4.43
2018-04-26T14:27:49.628Z,5.47
2018-04-26T14:30:17.877Z,7.90
2018-04-26T14:32:46.142Z,5.80
2018-04-26T14:35:15.125Z,6.97
2018-04-26T14:37:44.305Z,8.10
2018-04-26T14:40:12.643Z,9.80
2018-04-26T14:42:40.904Z,8.37
2018-04-26T14:45:09.244Z,6.07
2018-04-26T14:47:37.529Z,7.93
2018-04-26T14:50:05.789Z,8.33
2018-04-26T14:52:34.034Z,6.03
2018-04-26T14:55:02.288Z,8.90
2018-04-26T14:57:30.553Z,10.03
2018-04-26T14:59:58.809Z,8.40
2018-04-26T15:02:27.101Z,7.17
2018-04-26T15:04:55.759Z,7.43
2018-04-26T15:07:24.008Z,8.77
2018-04-26T15:09:53.015Z,10.77
2018-04-26T15:12:22.034Z,7.30
2018-04-26T15:14:51.047Z,9.03
2018-04-26T15:17:19.317Z,6.63
2018-04-26T15:19:47.582Z,7.17
2018-04-26T15:22:16.596Z,7.77
2018-04-26T15:24:44.833Z,8.00
2018-04-26T15:27:13.844Z,9.03
2018-04-26T15:29:42.862Z,6.13
2018-04-26T15:32:11.197Z,6.40
2018-04-26T15:34:39.431Z,6.40
2018-04-26T15:37:07.676Z,7.57
2018-04-26T15:39:35.930Z,8.23
2018-04-26T15:42:04.179Z,5.93
2018-04-26T15:44:32.896Z,7.67
2018-04-26T15:47:01.144Z,5.23
2018-04-26T15:49:29.444Z,4.83
2018-04-26T15:51:57.717Z,5.50
2018-04-26T15:54:35.753Z,5.40
2018-04-26T15:57:34.065Z,4.83
2018-04-26T16:00:20.644Z,4.57
2018-04-26T16:03:04.624Z,6.07
2018-04-26T16:05:44.630Z,4.60
2018-04-26T16:11:36.993Z,4.23
2018-04-26T16:14:23.479Z,3.23
2018-04-26T16:17:22.805Z,2.73
2018-04-26T16:20:08.723Z,4.33
2018-04-26T16:22:57.432Z,3.40
2018-04-26T16:25:37.353Z,5.03
2018-04-26T16:28:24.072Z,5.00
2018-04-26T16:31:24.829Z,2.93
2018-04-26T16:34:05.768Z,3.93
2018-04-26T16:36:57.517Z,6.73
2018-04-26T16:39:25.753Z,3.90
2018-04-26T16:41:54.041Z,5.60
2018-04-26T16:44:22.312Z,4.77
2018-04-26T16:46:50.493Z,4.70
2018-04-26T16:49:19.519Z,4.87
2018-04-26T16:51:47.739Z,4.67
2018-04-26T16:54:15.983Z,4.87
2018-04-26T16:56:45.139Z,5.87
2018-04-26T16:59:13.456Z,4.23
2018-04-26T17:01:41.697Z,4.97
2018-04-26T17:04:10.033Z,3.70
2018-04-26T17:06:39.109Z,4.70
2018-04-26T17:09:08.118Z,4.77
2018-04-26T17:11:36.382Z,6.87
2018-04-26T17:14:06.121Z,4.23
2018-04-26T17:16:34.374Z,4.17
2018-04-26T17:19:03.393Z,4.90
2018-04-26T17:21:31.670Z,5.03
2018-04-26T17:23:59.926Z,5.53
2018-04-26T17:26:28.144Z,6.70
2018-04-26T17:28:56.444Z,7.97
2018-04-26T17:31:24.676Z,5.87
2018-04-26T17:33:53.787Z,6.30
2018-04-26T17:36:22.030Z,6.53
2018-04-26T17:38:50.300Z,6.63
2018-04-26T17:41:18.532Z,6.40
2018-04-26T17:43:46.797Z,10.27
2018-04-26T17:46:15.820Z,7.97
2018-04-26T17:48:44.127Z,5.80
2018-04-26T17:51:13.195Z,7.60
2018-04-26T17:53:41.455Z,6.50
2018-04-26T17:56:10.474Z,7.93
2018-04-26T17:58:39.493Z,5.90
2018-04-26T18:01:07.742Z,5.20
2018-04-26T18:03:37.137Z,5.40
2018-04-26T18:06:05.347Z,5.33
2018-04-26T18:08:33.639Z,5.33
2018-04-26T18:11:01.901Z,6.27
2018-04-26T18:13:30.902Z,4.53
2018-04-26T18:15:59.144Z,5.40
2018-04-26T18:18:27.380Z,4.97
2018-04-26T18:20:55.635Z,5.57
2018-04-26T18:23:24.650Z,5.83
2018-04-26T18:25:52.905Z,5.10
2018-04-26T18:28:21.927Z,5.63
2018-04-26T18:30:50.963Z,6.17
2018-04-26T18:33:19.190Z,6.00
2018-04-26T18:35:47.526Z,6.20
2018-04-26T18:38:15.709Z,5.73
2018-04-26T18:40:44.018Z,4.50
2018-04-26T18:43:13.047Z,5.13
2018-04-26T18:45:41.310Z,9.20
2018-04-26T18:48:11.199Z,5.17
2018-04-26T18:50:39.461Z,5.43
2018-04-26T18:53:07.729Z,6.93
2018-04-26T18:55:36.007Z,5.90
2018-04-26T18:58:04.257Z,6.63
2018-04-26T19:00:34.116Z,7.27
2018-04-26T19:03:02.382Z,6.93
2018-04-26T19:05:30.661Z,6.63
2018-04-26T19:07:58.928Z,6.20
2018-04-26T19:10:27.279Z,5.93
2018-04-26T19:12:55.518Z,6.67
2018-04-26T19:15:23.852Z,7.77
2018-04-26T19:17:52.110Z,7.00
2018-04-26T19:20:20.344Z,6.33
2018-04-26T19:22:49.479Z,6.10
2018-04-26T19:25:17.821Z,8.83
2018-04-26T19:27:46.130Z,7.10
2018-04-26T19:30:14.375Z,6.50
2018-04-26T19:32:43.410Z,7.93
2018-04-26T19:35:11.770Z,7.20
2018-04-26T19:37:40.033Z,8.17
2018-04-26T19:40:09.014Z,6.70
2018-04-26T19:42:37.359Z,8.63
2018-04-26T19:45:05.696Z,9.73
2018-04-26T19:47:34.675Z,6.43
2018-04-26T19:50:02.944Z,6.70
2018-04-26T19:52:31.225Z,7.13
2018-04-26T19:54:59.460Z,7.47
2018-04-26T19:57:28.075Z,6.80
2018-04-26T19:59:56.362Z,7.23
2018-04-26T20:02:24.614Z,6.67
2018-04-26T20:04:52.859Z,8.83
2018-04-26T20:07:21.912Z,6.97
2018-04-26T20:09:50.164Z,8.57
2018-04-26T20:12:18.440Z,7.50
2018-04-26T20:14:46.689Z,8.83
2018-04-26T20:17:14.960Z,8.37
2018-04-26T20:19:43.210Z,5.93
2018-04-26T20:22:11.928Z,6.63
2018-04-26T20:24:40.180Z,6.72
2018-04-26T20:27:09.762Z,6.33
2018-04-26T20:29:38.097Z,7.37
2018-04-26T20:32:06.338Z,8.70
2018-04-26T20:34:35.336Z,6.90
2018-04-26T20:37:03.624Z,9.90
2018-04-26T20:39:31.942Z,5.70
2018-04-26T20:42:00.194Z,6.03
2018-04-26T20:44:40.475Z,5.30
2018-04-26T20:47:08.708Z,7.27
2018-04-26T20:49:37.572Z,5.50
2018-04-26T20:52:05.806Z,5.30
2018-04-26T20:54:34.032Z,7.77
2018-04-26T20:57:02.296Z,5.40
2018-04-26T20:59:30.537Z,6.33
2018-04-26T21:01:59.380Z,4.50
2018-04-26T21:04:27.618Z,7.17
2018-04-26T21:06:55.853Z,5.77
2018-04-26T21:09:24.083Z,6.53
2018-04-26T21:11:52.360Z,6.90
2018-04-26T21:14:20.677Z,7.00
2018-04-26T21:16:48.897Z,9.00
2018-04-26T21:19:17.884Z,6.90
2018-04-26T21:21:46.900Z,7.67
2018-04-26T21:24:15.133Z,7.83
2018-04-26T21:26:43.383Z,6.47
2018-04-26T21:29:12.245Z,6.13
2018-04-26T21:31:41.275Z,6.93
2018-04-26T21:34:09.509Z,9.57
2018-04-26T21:36:37.764Z,6.67
2018-04-26T21:39:06.013Z,6.50
2018-04-26T21:41:34.286Z,6.23
2018-04-26T21:44:02.530Z,5.67
2018-04-26T21:46:30.780Z,4.63
2018-04-26T21:48:59.022Z,7.70
2018-04-26T21:51:32.909Z,6.17
2018-04-26T21:54:06.787Z,8.80
2018-04-26T21:56:40.891Z,5.53
2018-04-26T21:59:14.757Z,7.33
2018-04-26T22:01:49.376Z,6.93
2018-04-26T22:04:34.776Z,6.97
2018-04-26T22:07:03.052Z,8.23
2018-04-26T22:09:32.041Z,5.07
2018-04-26T22:12:01.065Z,7.43
2018-04-26T22:14:29.304Z,6.40
2018-04-26T22:16:58.328Z,6.13
2018-04-26T22:19:26.569Z,5.47
2018-04-26T22:21:54.803Z,7.90
2018-04-26T22:24:23.033Z,7.00
2018-04-26T22:26:51.608Z,6.27
2018-04-26T22:29:19.826Z,7.07
2018-04-26T22:31:49.286Z,8.07
2018-04-26T22:34:17.525Z,6.73
2018-04-26T22:36:45.779Z,7.63
2018-04-26T22:39:14.018Z,6.63
2018-04-26T22:41:42.257Z,6.07
2018-04-26T22:44:11.277Z,7.20
2018-04-26T22:46:39.511Z,9.07
2018-04-26T22:49:07.772Z,7.93
2018-04-26T22:51:36.003Z,9.47
2018-04-26T22:54:04.320Z,6.03
2018-04-26T22:56:32.579Z,6.27
2018-04-26T22:59:00.843Z,6.60
2018-04-26T23:01:29.972Z,5.33
2018-04-26T23:03:58.215Z,10.20
2018-04-26T23:06:27.209Z,6.77
2018-04-26T23:08:56.223Z,6.93
2018-04-26T23:11:25.227Z,8.17
2018-04-26T23:13:54.037Z,5.87
2018-04-26T23:16:22.268Z,6.93
2018-04-26T23:18:50.996Z,5.43
2018-04-26T23:21:19.245Z,6.00
2018-04-26T23:23:47.612Z,7.00
2018-04-26T23:26:16.591Z,7.03
2018-04-26T23:28:45.083Z,6.30
2018-04-26T23:31:13.319Z,5.73
2018-04-26T23:33:42.296Z,6.07
2018-04-26T23:36:11.279Z,4.93
2018-04-26T23:38:39.526Z,6.80
2018-04-26T23:41:07.749Z,5.03
2018-04-26T23:43:36.014Z,4.63
2018-04-26T23:46:04.248Z,5.80
2018-04-26T23:48:32.496Z,7.20
2018-04-26T23:51:01.490Z,8.23
2018-04-26T23:53:29.748Z,6.77
2018-04-26T23:55:57.989Z,6.03
2018-04-26T23:58:26.236Z,6.93
